createdAt,value
2022-08-26T00:01:32.220Z,23.10
2022-08-26T00:11:36.599Z,22.90
2022-08-26T00:21:38.293Z,22.80
2022-08-26T00:31:40.992Z,22.70
2022-08-26T00:41:43.077Z,22.60
2022-08-26T00:51:50.829Z,22.50
2022-08-26T01:01:53.266Z,22.40
2022-08-26T01:11:57.276Z,22.30
2022-08-26T01:22:05.287Z,22.20
2022-08-26T01:32:10.710Z,22.10
2022-08-26T01:42:14.616Z,22.00
2022-08-26T01:52:22.609Z,22.00
2022-08-26T02:02:26.402Z,21.90
2022-08-26T02:12:28.290Z,21.80
2022-08-26T02:22:31.444Z,21.80
2022-08-26T02:32:33.695Z,21.70
2022-08-26T02:42:37.450Z,21.60
2022-08-26T02:52:39.156Z,21.40
2022-08-26T03:02:41.098Z,21.40
2022-08-26T03:12:47.462Z,21.30
2022-08-26T03:22:53.192Z,21.30
2022-08-26T03:32:58.109Z,21.40
2022-08-26T03:43:01.075Z,21.30
2022-08-26T03:53:04.284Z,21.40
2022-08-26T04:03:10.013Z,21.40
2022-08-26T04:13:12.234Z,21.20
2022-08-26T04:23:14.722Z,21.10
2022-08-26T04:33:19.679Z,21.00
2022-08-26T04:43:34.457Z,21.00
2022-08-26T04:53:36.561Z,20.90
2022-08-26T05:03:38.518Z,20.90
2022-08-26T05:13:43.002Z,20.90
2022-08-26T05:23:44.707Z,20.90
2022-08-26T05:33:46.711Z,21.10
2022-08-26T05:43:48.436Z,21.20
2022-08-26T05:53:54.649Z,21.30
2022-08-26T06:04:01.903Z,21.50
2022-08-26T06:14:05.997Z,21.60
2022-08-26T06:24:28.865Z,21.80
2022-08-26T06:34:30.959Z,22.10
2022-08-26T06:44:32.847Z,22.40
2022-08-26T06:54:34.839Z,22.70
2022-08-26T07:04:36.520Z,22.90
2022-08-26T07:14:38.471Z,23.10
2022-08-26T07:24:42.449Z,23.40
2022-08-26T07:34:45.567Z,23.40
2022-08-26T07:44:47.759Z,23.50
2022-08-26T07:54:49.658Z,23.70
2022-08-26T08:04:52.252Z,23.60
2022-08-26T08:14:54.338Z,23.90
2022-08-26T08:24:56.735Z,24.20
2022-08-26T08:34:59.344Z,24.50
2022-08-26T08:45:10.615Z,24.80
2022-08-26T08:55:18.135Z,25.00
2022-08-26T09:05:34.225Z,25.30
2022-08-26T09:15:41.879Z,25.60
2022-08-26T09:36:18.663Z,26.10
2022-08-26T09:46:28.326Z,26.30
2022-08-26T09:56:33.130Z,26.50
2022-08-26T10:06:43.417Z,26.70
2022-08-26T10:16:54.466Z,27.00
2022-08-26T10:27:07.684Z,27.30
2022-08-26T10:37:20.455Z,27.50
2022-08-26T10:47:33.263Z,27.70
2022-08-26T10:57:52.964Z,28.00
2022-08-26T11:08:20.475Z,28.30
2022-08-26T11:18:42.955Z,28.50
2022-08-26T11:28:45.976Z,28.80
2022-08-26T11:38:49.020Z,29.00
2022-08-26T11:48:52.074Z,29.30
2022-08-26T11:58:57.253Z,29.50
2022-08-26T12:09:02.816Z,29.70
2022-08-26T12:19:27.648Z,30.00
2022-08-26T12:29:29.348Z,30.30
2022-08-26T12:39:36.242Z,30.10
2022-08-26T12:49:39.622Z,29.50
2022-08-26T12:59:41.510Z,29.00
2022-08-26T13:09:43.178Z,28.40
2022-08-26T13:19:46.063Z,27.90
2022-08-26T13:29:47.881Z,26.70
2022-08-26T13:39:51.077Z,26.00
2022-08-26T13:49:52.959Z,25.60
2022-08-26T13:59:56.482Z,25.30
2022-08-26T14:09:58.219Z,25.00
2022-08-26T14:19:59.918Z,24.90
2022-08-26T14:30:01.594Z,25.20
2022-08-26T14:40:06.054Z,25.40
2022-08-26T14:50:08.122Z,25.30
2022-08-26T15:00:10.505Z,25.60
2022-08-26T15:10:14.385Z,25.80
2022-08-26T15:20:16.539Z,26.00
2022-08-26T15:30:18.421Z,26.30
2022-08-26T15:40:22.085Z,26.50
2022-08-26T15:50:25.382Z,26.70
2022-08-26T16:00:28.177Z,26.80
2022-08-26T16:10:31.051Z,26.80
2022-08-26T16:20:34.659Z,26.80
2022-08-26T16:30:36.315Z,26.80
2022-08-26T16:40:38.675Z,26.70
2022-08-26T16:50:41.881Z,26.70
2022-08-26T17:00:45.368Z,26.60
2022-08-26T17:10:47.053Z,26.50
2022-08-26T17:20:49.353Z,26.40
2022-08-26T17:30:51.048Z,26.20
2022-08-26T17:40:52.874Z,26.10
2022-08-26T17:50:54.792Z,25.90
2022-08-26T18:00:56.661Z,25.80
2022-08-26T18:10:59.051Z,25.50
2022-08-26T18:21:01.884Z,25.50
2022-08-26T18:31:03.841Z,25.40
2022-08-26T18:41:05.677Z,25.30
2022-08-26T18:51:07.983Z,25.20
2022-08-26T19:01:15.403Z,25.00
2022-08-26T19:11:31.617Z,24.80
2022-08-26T19:21:35.757Z,24.40
2022-08-26T19:31:37.412Z,24.20
2022-08-26T19:41:40.083Z,24.00
2022-08-26T19:51:41.997Z,23.90
2022-08-26T20:01:43.840Z,23.70
2022-08-26T20:11:45.524Z,23.50
2022-08-26T20:21:47.268Z,23.50
2022-08-26T20:31:49.477Z,23.40
2022-08-26T20:41:51.347Z,23.40
2022-08-26T20:51:53.954Z,23.50
2022-08-26T21:01:55.838Z,23.90
2022-08-26T21:11:57.578Z,23.40
2022-08-26T21:21:59.588Z,23.30
2022-08-26T21:32:01.256Z,23.20
2022-08-26T21:42:03.683Z,23.10
2022-08-26T21:52:05.460Z,23.10
2022-08-26T22:02:07.496Z,23.00
2022-08-26T22:12:11.438Z,23.00
2022-08-26T22:22:13.692Z,22.90
2022-08-26T22:32:15.536Z,22.90
2022-08-26T22:42:17.248Z,22.80
2022-08-26T22:52:18.935Z,22.70
2022-08-26T23:02:20.612Z,22.70
2022-08-26T23:12:22.571Z,22.70
2022-08-26T23:22:25.045Z,22.60
2022-08-26T23:32:26.831Z,22.60
2022-08-26T23:42:29.038Z,22.60
2022-08-26T23:52:50.413Z,22.50
